Time;durP1;ratioP1;P1;durP2;ratioP2;P2;SDS_P1;SDS_P2;PMS_P1;PMS_P2;Temp;Humidity;BMP_temperature;BMP_pressure;BME280_temperature;BME280_humidity;BME280_pressure;Samples;Min_cycle;Max_cycle;Signal;HPM_P1;HPM_P2
2023/08/22 00:00:13;;;;;;;;;2.00;2.00;;;;;24.55;49.22;101910.38;1980448;28;2754071;-71
2023/08/22 00:01:26;;;;;;;;;1.50;1.50;;;;;24.53;49.40;101912.31;2005578;28;2720153;-71
2023/08/22 00:02:40;;;;;;;;;1.00;1.00;;;;;24.47;49.22;101911.81;2005490;28;2733592;-71
2023/08/22 00:03:56;;;;;;;;;2.00;1.50;;;;;24.46;48.95;101910.09;1982735;28;2738804;-71
2023/08/22 00:05:09;;;;;;;;;2.50;1.17;;;;;24.45;49.84;101907.50;1990983;28;2737766;-72
2023/08/22 00:06:24;;;;;;;;;2.00;2.00;;;;;24.43;49.34;101910.31;1988983;28;2741933;-74
2023/08/22 00:07:38;;;;;;;;;1.00;1.00;;;;;24.43;50.17;101904.94;1987496;28;2725267;-74
2023/08/22 00:08:52;;;;;;;;;2.00;2.00;;;;;24.43;49.29;101901.41;1978634;28;2750326;-74
2023/08/22 00:10:06;;;;;;;;;1.00;1.00;;;;;24.41;49.41;101906.91;1982604;28;2729436;-74
2023/08/22 00:11:19;;;;;;;;;2.83;1.83;;;;;24.39;48.95;101893.59;1982287;28;2742362;-74
2023/08/22 00:12:31;;;;;;;;;2.67;2.00;;;;;24.38;49.08;101888.31;1957775;28;2746169;-74
2023/08/22 00:13:44;;;;;;;;;1.00;1.00;;;;;24.36;50.61;101893.81;2006214;28;2722203;-74
2023/08/22 00:14:57;;;;;;;;;2.00;1.83;;;;;24.34;50.50;101889.53;1982486;28;2745080;-74
2023/08/22 00:16:10;;;;;;;;;1.67;1.67;;;;;24.33;50.42;101896.72;1982149;28;2741982;-74
2023/08/22 00:17:24;;;;;;;;;1.67;1.00;;;;;24.31;50.09;101890.59;1983868;28;2731520;-72
2023/08/22 00:18:37;;;;;;;;;1.33;1.33;;;;;24.30;49.75;101888.03;1983099;28;2722209;-72
2023/08/22 00:19:51;;;;;;;;;3.00;1.50;;;;;24.26;50.08;101900.81;1981734;28;2746107;-72
2023/08/22 00:21:02;;;;;;;;;2.00;2.00;;;;;24.24;49.91;101889.31;1965156;28;2741946;-73
2023/08/22 00:22:14;;;;;;;;;0.80;0.80;;;;;24.20;50.02;101882.47;2012558;28;2725338;-73
2023/08/22 00:23:28;;;;;;;;;2.17;2.17;;;;;24.17;50.51;101888.91;1982571;28;2750300;-73
2023/08/22 00:24:39;;;;;;;;;1.67;1.00;;;;;24.14;50.06;101883.75;1957368;28;2739864;-73
2023/08/22 00:25:54;;;;;;;;;1.00;1.00;;;;;24.12;49.77;101893.75;2005263;28;2729424;-73
2023/08/22 00:27:04;;;;;;;;;1.33;1.33;;;;;24.11;50.14;101878.59;1957059;28;2741981;-73
2023/08/22 00:28:15;;;;;;;;;1.67;1.33;;;;;24.09;49.97;101883.25;2002943;28;2737808;-72
2023/08/22 00:29:28;;;;;;;;;1.50;1.50;;;;;24.09;50.51;101873.34;1983045;28;2730471;-71
2023/08/22 00:30:40;;;;;;;;;2.33;2.33;;;;;24.08;50.91;101873.44;1955359;28;2754436;-71
2023/08/22 00:31:50;;;;;;;;;2.67;2.00;;;;;24.05;50.70;101874.56;1979578;28;2741925;-71
2023/08/22 00:33:02;;;;;;;;;1.00;1.00;;;;;24.05;50.72;101882.63;2005098;28;2722119;-69
2023/08/22 00:34:15;;;;;;;;;3.00;1.67;;;;;24.03;50.27;101882.72;2005643;28;2741953;-69
2023/08/22 00:35:29;;;;;;;;;2.33;1.83;;;;;24.03;51.06;101885.41;1983399;28;2735730;-68
2023/08/22 00:36:42;;;;;;;;;1.33;1.33;;;;;24.02;50.63;101880.16;1984309;28;2725770;-70
2023/08/22 00:37:55;;;;;;;;;1.83;1.83;;;;;24.02;51.07;101881.00;1981461;28;2731005;-70
2023/08/22 00:39:08;;;;;;;;;1.83;1.83;;;;;24.02;50.74;101875.66;1988401;28;2744088;-70
2023/08/22 00:40:18;;;;;;;;;2.00;1.33;;;;;24.02;51.19;101878.31;1962816;28;2742974;-69
2023/08/22 00:41:30;;;;;;;;;1.00;1.00;;;;;24.01;50.24;101871.22;2004167;28;2731517;-69
2023/08/22 00:42:43;;;;;;;;;1.50;1.00;;;;;24.03;50.71;101876.47;2006070;28;2720066;-69
2023/08/22 00:43:53;;;;;;;;;3.00;2.00;;;;;24.01;50.45;101878.41;1956801;28;2739947;-69
2023/08/22 00:45:05;;;;;;;;;1.00;1.00;;;;;24.02;50.48;101872.97;2004867;28;2731539;-69
2023/08/22 00:46:20;;;;;;;;;2.50;2.50;;;;;24.04;50.50;101884.44;1989432;28;2735191;-70
2023/08/22 00:47:33;;;;;;;;;1.00;1.00;;;;;24.05;50.86;101885.31;1990437;28;2727406;-70
2023/08/22 00:48:47;;;;;;;;;1.00;1.00;;;;;24.04;51.24;101876.38;1982342;28;2731576;-69
2023/08/22 00:50:00;;;;;;;;;1.00;1.00;;;;;24.03;51.11;101879.16;1983033;28;2725251;-70
2023/08/22 00:51:12;;;;;;;;;2.33;2.00;;;;;24.02;51.08;101882.84;1956997;28;2751322;-70
2023/08/22 00:52:22;;;;;;;;;2.00;2.00;;;;;23.99;50.54;101886.59;1979741;28;2748227;-70
2023/08/22 00:53:33;;;;;;;;;1.00;1.00;;;;;23.96;50.55;101886.81;2004672;28;2735706;-70
2023/08/22 00:54:44;;;;;;;;;1.33;1.00;;;;;23.97;50.39;101890.34;1964128;28;2744022;-70
2023/08/22 00:55:55;;;;;;;;;1.00;0.00;;;;;23.98;50.23;101889.41;2010245;28;2728463;-70
2023/08/22 00:57:09;;;;;;;;;1.33;1.33;;;;;23.99;50.61;101881.22;1977795;28;2739193;-70
2023/08/22 00:58:22;;;;;;;;;1.83;1.00;;;;;24.02;50.21;101882.84;1982750;28;2725282;-70
2023/08/22 00:59:33;;;;;;;;;1.67;1.67;;;;;24.05;50.46;101882.63;1957204;28;2739880;-71
2023/08/22 01:00:44;;;;;;;;;2.00;2.00;;;;;24.08;50.84;101881.50;2003512;28;2744036;-70
2023/08/22 01:01:57;;;;;;;;;2.67;2.00;;;;;24.09;50.67;101878.72;1982688;28;2738301;-70
2023/08/22 01:03:10;;;;;;;;;3.50;2.00;;;;;24.10;50.59;101877.75;1983096;28;2734645;-70
2023/08/22 01:04:24;;;;;;;;;1.00;1.00;;;;;24.12;50.53;101874.97;1983265;28;2725605;-70
2023/08/22 01:05:42;;;;;;;;;0.67;0.67;;;;;24.14;50.05;101871.19;1982163;28;2725373;-70
2023/08/22 01:07:03;;;;;;;;;5.00;1.67;;;;;24.16;50.29;101877.31;1982990;28;2738276;-70
2023/08/22 01:08:21;;;;;;;;;1.00;1.00;;;;;24.17;49.98;101876.31;1982946;28;2727362;-71
2023/08/22 01:09:39;;;;;;;;;1.50;1.50;;;;;24.19;50.15;101881.59;1982173;28;2725259;-71
2023/08/22 01:10:55;;;;;;;;;1.00;1.00;;;;;24.20;50.51;101883.28;1980879;28;2731521;-71
2023/08/22 01:12:44;;;;;;;;;1.33;1.33;;;;;24.25;49.82;101874.88;1981967;28;2735694;-71
2023/08/22 01:14:04;;;;;;;;;1.00;1.00;;;;;24.29;50.41;101873.75;1989302;28;2727610;-71
2023/08/22 01:15:28;;;;;;;;;0.50;0.50;;;;;24.32;50.60;101867.28;1983284;28;2729461;-71
2023/08/22 01:16:39;;;;;;;;;2.00;2.00;;;;;24.33;49.59;101861.78;1957147;28;2739850;-71
2023/08/22 01:17:54;;;;;;;;;0.83;0.50;;;;;24.34;49.67;101868.91;2005641;28;2718074;-71
2023/08/22 01:19:08;;;;;;;;;1.00;1.00;;;;;24.34;49.64;101866.22;1982558;28;2725282;-71
2023/08/22 01:20:22;;;;;;;;;2.83;1.00;;;;;24.36;50.27;101866.09;1982635;28;2731542;-71
2023/08/22 01:21:36;;;;;;;;;1.50;1.50;;;;;24.36;50.50;101866.09;1982839;28;2724370;-70
2023/08/22 01:22:49;;;;;;;;;1.67;1.67;;;;;24.39;49.88;101865.84;1983081;28;2729428;-71
2023/08/22 01:24:02;;;;;;;;;2.00;2.00;;;;;24.41;49.89;101853.16;1958279;28;2740895;-71
2023/08/22 01:25:15;;;;;;;;;1.00;1.00;;;;;24.43;49.75;101856.59;2006129;28;2724221;-71
2023/08/22 01:26:29;;;;;;;;;2.00;1.00;;;;;24.44;49.83;101858.31;1982766;28;2727377;-71
2023/08/22 01:28:01;;;;;;;;;1.33;1.33;;;;;24.44;50.23;101857.47;1982870;28;2724228;-71
2023/08/22 01:29:42;;;;;;;;;1.67;1.17;;;;;24.44;50.42;101858.31;1979122;28;2725326;-71
2023/08/22 01:31:02;;;;;;;;;1.17;1.17;;;;;24.45;49.62;101860.00;1982644;28;2728940;-71
2023/08/22 01:32:23;;;;;;;;;1.00;1.00;;;;;24.45;49.38;101853.78;1983017;28;2729428;-71
2023/08/22 01:33:41;;;;;;;;;1.00;1.00;;;;;24.45;49.38;101854.63;1982490;28;2724220;-71
2023/08/22 01:35:00;;;;;;;;;1.33;1.17;;;;;24.45;49.67;101854.63;1982740;28;2716933;-71
2023/08/22 01:36:16;;;;;;;;;1.00;1.00;;;;;24.46;49.92;101859.06;1983264;28;2733041;-71
2023/08/22 01:37:31;;;;;;;;;1.00;1.00;;;;;24.48;49.04;101853.56;1982204;28;2728809;-71
2023/08/22 01:38:47;;;;;;;;;1.33;1.33;;;;;24.48;50.10;101849.03;1982365;28;2726280;-71
2023/08/22 01:40:04;;;;;;;;;1.00;1.00;;;;;24.50;49.88;101848.91;1982516;28;2725310;-71
2023/08/22 01:41:19;;;;;;;;;1.00;1.00;;;;;24.53;49.70;101850.50;1989951;28;2727358;-71
2023/08/22 01:42:32;;;;;;;;;1.00;1.00;;;;;24.54;49.20;101858.47;1986960;28;2724233;-70
2023/08/22 01:43:46;;;;;;;;;1.50;1.50;;;;;24.54;49.21;101850.41;1981891;28;2727341;-70
2023/08/22 01:44:56;;;;;;;;;2.00;2.00;;;;;24.54;49.42;101846.88;1955732;28;2753528;-70
2023/08/22 01:46:07;;;;;;;;;1.00;1.00;;;;;24.54;49.28;101844.19;2003960;28;2736046;-70
2023/08/22 01:47:20;;;;;;;;;1.00;1.00;;;;;24.54;48.98;101846.88;2004438;28;2720436;-70
2023/08/22 01:48:34;;;;;;;;;1.00;1.00;;;;;24.53;49.21;101845.16;1981518;28;2724252;-70
2023/08/22 01:49:47;;;;;;;;;0.67;0.67;;;;;24.50;48.83;101844.41;1982603;28;2723198;-70
2023/08/22 01:51:00;;;;;;;;;1.00;1.00;;;;;24.48;49.81;101843.66;1980305;28;2732572;-70
2023/08/22 01:52:13;;;;;;;;;1.00;1.00;;;;;24.47;49.16;101847.31;1982852;28;2725306;-70
2023/08/22 01:53:27;;;;;;;;;1.33;1.33;;;;;24.45;50.25;101843.91;1981499;28;2722173;-70
2023/08/22 01:54:40;;;;;;;;;1.67;0.83;;;;;24.44;49.53;101849.38;1983047;28;2722201;-69
2023/08/22 01:55:53;;;;;;;;;1.67;1.17;;;;;24.44;49.25;101836.81;1981882;28;2740894;-70
2023/08/22 01:57:06;;;;;;;;;0.50;0.00;;;;;24.43;49.39;101829.72;1981444;28;2729443;-70
2023/08/22 01:58:17;;;;;;;;;3.67;2.00;;;;;24.43;49.84;101839.59;1956309;28;2750373;-69
2023/08/22 01:59:28;;;;;;;;;1.00;1.00;;;;;24.41;48.98;101831.69;2003803;28;2735691;-70
2023/08/22 02:00:41;;;;;;;;;1.17;1.17;;;;;24.39;49.00;101837.16;1981925;28;2725278;-69
2023/08/22 02:01:54;;;;;;;;;1.50;1.50;;;;;24.39;49.38;101833.63;1982276;28;2729449;-70
2023/08/22 02:03:08;;;;;;;;;1.33;1.17;;;;;24.38;49.47;101827.38;1982435;28;2739873;-69
2023/08/22 02:04:21;;;;;;;;;1.00;1.00;;;;;24.39;49.15;101836.31;1982751;28;2725617;-70
2023/08/22 02:05:32;;;;;;;;;2.00;2.00;;;;;24.37;49.46;101825.66;1957570;28;2734693;-70
2023/08/22 02:06:44;;;;;;;;;3.00;1.00;;;;;24.38;49.57;101827.38;2004124;28;2724248;-72
2023/08/22 02:07:59;;;;;;;;;0.50;0.50;;;;;24.41;49.70;101830.81;1983117;28;2729450;-72
2023/08/22 02:09:10;;;;;;;;;3.00;2.67;;;;;24.39;49.28;101829.13;1954660;28;2746244;-73
2023/08/22 02:10:21;;;;;;;;;1.33;1.33;;;;;24.40;49.28;101827.25;2003692;28;2739840;-72
2023/08/22 02:11:34;;;;;;;;;1.17;1.17;;;;;24.39;48.99;101828.25;2003490;28;2727341;-73
2023/08/22 02:12:47;;;;;;;;;1.00;1.00;;;;;24.37;48.97;101825.66;1982649;28;2722141;-73
2023/08/22 02:14:00;;;;;;;;;1.67;1.00;;;;;24.36;49.27;101823.97;1981895;28;2722146;-71
2023/08/22 02:15:13;;;;;;;;;1.00;1.00;;;;;24.35;48.83;101824.06;1982827;28;2725283;-69
2023/08/22 02:16:27;;;;;;;;;1.00;1.00;;;;;24.34;49.93;101825.91;1981775;28;2725275;-69
2023/08/22 02:17:40;;;;;;;;;2.00;1.00;;;;;24.33;50.05;101821.50;1982295;28;2726427;-69
2023/08/22 02:18:54;;;;;;;;;1.83;1.83;;;;;24.31;49.48;101817.22;1986400;28;2737771;-69
2023/08/22 02:20:08;;;;;;;;;1.33;1.33;;;;;24.29;49.89;101817.34;1977812;28;2731536;-69
2023/08/22 02:21:21;;;;;;;;;1.00;0.83;;;;;24.28;49.67;101821.84;1981282;28;2725262;-69
2023/08/22 02:22:40;;;;;;;;;1.83;1.83;;;;;24.26;50.47;101814.88;1980816;28;2737759;-69
2023/08/22 02:23:53;;;;;;;;;2.00;2.00;;;;;24.24;49.91;101824.84;1980300;28;2748182;-69
2023/08/22 02:25:05;;;;;;;;;3.67;1.33;;;;;24.23;49.63;101823.13;1957185;28;2735702;-69
2023/08/22 02:26:18;;;;;;;;;1.67;1.00;;;;;24.22;49.71;101827.66;2012575;28;2714882;-69
2023/08/22 02:27:28;;;;;;;;;3.00;2.00;;;;;24.21;49.95;101823.25;1962507;28;2750322;-69
2023/08/22 02:28:40;;;;;;;;;1.00;1.00;;;;;24.21;50.31;101827.75;2003045;28;2729441;-69
2023/08/22 02:29:53;;;;;;;;;2.50;1.00;;;;;24.23;50.12;101826.69;2004751;28;2733616;-69
2023/08/22 02:31:07;;;;;;;;;4.33;1.83;;;;;24.24;50.41;101823.03;1979460;28;2733669;-70
2023/08/22 02:32:20;;;;;;;;;1.00;1.00;;;;;24.25;49.72;101831.91;1983076;28;2724713;-70
2023/08/22 02:33:33;;;;;;;;;4.00;1.67;;;;;24.24;49.39;101836.47;1980639;28;2750266;-70
2023/08/22 02:34:44;;;;;;;;;2.33;2.33;;;;;24.24;49.90;101832.91;1956397;28;2754428;-68
2023/08/22 02:35:56;;;;;;;;;2.20;1.00;;;;;24.23;49.60;101832.03;2002755;28;2735699;-70
2023/08/22 02:37:09;;;;;;;;;1.67;1.67;;;;;24.23;50.09;101837.41;2003119;28;2741940;-70
2023/08/22 02:38:22;;;;;;;;;1.67;1.67;;;;;24.24;49.98;101825.72;1983016;28;2729437;-70
2023/08/22 02:39:33;;;;;;;;;2.00;1.67;;;;;24.26;49.98;101822.94;1956960;28;2748174;-70
2023/08/22 02:40:44;;;;;;;;;2.00;2.00;;;;;24.27;49.95;101824.66;2002714;28;2733595;-70
2023/08/22 02:41:57;;;;;;;;;3.00;1.33;;;;;24.28;49.87;101816.47;1988248;28;2725304;-70
2023/08/22 02:43:10;;;;;;;;;2.17;2.00;;;;;24.27;49.50;101817.44;1987935;28;2744548;-70
2023/08/22 02:44:21;;;;;;;;;4.33;1.67;;;;;24.26;49.51;101813.06;1958090;28;2748186;-69
2023/08/22 02:45:32;;;;;;;;;1.33;1.33;;;;;24.25;50.03;101815.81;2002869;28;2737758;-69
2023/08/22 02:46:45;;;;;;;;;1.67;1.67;;;;;24.22;49.95;101805.31;2005528;28;2722156;-69
2023/08/22 02:47:58;;;;;;;;;1.50;1.50;;;;;24.19;50.52;101806.41;1981769;28;2729446;-69
2023/08/22 02:49:11;;;;;;;;;3.00;1.17;;;;;24.17;50.32;101813.72;1981776;28;2733580;-69
2023/08/22 02:50:25;;;;;;;;;1.83;1.17;;;;;24.14;50.44;101806.75;1980458;28;2738821;-69
2023/08/22 02:51:38;;;;;;;;;2.00;2.00;;;;;24.11;50.46;101823.06;1979990;28;2738235;-69
2023/08/22 02:52:52;;;;;;;;;5.33;2.83;;;;;24.10;50.21;101817.84;1981621;28;2751023;-69
2023/08/22 02:54:02;;;;;;;;;2.00;2.00;;;;;24.09;49.90;101816.09;1956288;28;2744010;-68
2023/08/22 02:55:13;;;;;;;;;1.67;1.67;;;;;24.07;50.18;101820.75;1993050;28;2744175;-69
2023/08/22 02:56:24;;;;;;;;;3.00;2.00;;;;;24.05;50.10;101815.50;1989317;28;2751371;-69
2023/08/22 02:57:37;;;;;;;;;1.80;1.80;;;;;24.03;50.43;101812.03;2002712;28;2741941;-68
2023/08/22 02:58:50;;;;;;;;;1.33;1.00;;;;;24.01;51.15;101814.84;2002998;28;2725299;-69
2023/08/22 03:00:00;;;;;;;;;2.00;2.00;;;;;24.00;50.56;101817.66;1954367;28;3465861;-69
2023/08/22 03:01:11;;;;;;;;;2.00;2.00;;;;;24.00;50.10;101818.50;2003944;28;2742975;-69
2023/08/22 03:02:25;;;;;;;;;1.50;1.00;;;;;23.99;50.31;101811.41;1984361;28;2727349;-69
2023/08/22 03:03:38;;;;;;;;;2.00;2.00;;;;;24.00;50.62;101818.50;1983335;28;2737776;-71
2023/08/22 03:04:52;;;;;;;;;1.00;1.00;;;;;24.00;50.34;101809.59;1984971;28;2727355;-68
2023/08/22 03:06:05;;;;;;;;;1.00;1.00;;;;;24.01;50.22;101813.97;1983724;28;2724217;-69
2023/08/22 03:07:18;;;;;;;;;1.67;1.67;;;;;24.01;50.07;101816.66;1983531;28;2725282;-69
2023/08/22 03:08:32;;;;;;;;;1.00;1.00;;;;;24.00;50.29;101813.13;1983450;28;2723199;-68
2023/08/22 03:09:45;;;;;;;;;1.83;1.83;;;;;24.00;50.31;101825.72;1982399;28;2732012;-68
2023/08/22 03:11:00;;;;;;;;;2.00;2.00;;;;;23.99;50.70;101823.97;1981488;28;2744662;-70
2023/08/22 03:12:13;;;;;;;;;2.33;2.00;;;;;23.97;50.40;101817.88;1983580;28;2748285;-70
2023/08/22 03:13:30;;;;;;;;;1.00;1.00;;;;;23.96;50.47;101816.16;1984517;28;2726323;-70
2023/08/22 03:14:43;;;;;;;;;1.83;1.83;;;;;23.93;50.11;101812.72;1982430;28;2744026;-70
2023/08/22 03:15:54;;;;;;;;;2.00;2.00;;;;;23.94;50.70;101818.94;1957923;28;2752380;-70
2023/08/22 03:17:05;;;;;;;;;2.00;2.00;;;;;23.92;50.34;101815.53;1980895;28;2734738;-69
2023/08/22 03:18:16;;;;;;;;;3.00;1.00;;;;;23.91;50.94;101814.66;2004704;28;2730527;-69
2023/08/22 03:19:26;;;;;;;;;2.33;2.00;;;;;23.91;50.61;101814.66;1979271;28;2750845;-70
2023/08/22 03:20:37;;;;;;;;;2.00;2.00;;;;;23.90;50.74;101812.09;1997037;28;2748268;-70
2023/08/22 03:21:49;;;;;;;;;2.25;1.25;;;;;23.90;50.63;101817.47;2003453;28;2733060;-70
2023/08/22 03:23:05;;;;;;;;;2.33;2.00;;;;;23.88;50.23;101814.06;2005700;28;2739846;-70
2023/08/22 03:24:18;;;;;;;;;2.50;1.00;;;;;23.86;50.49;101814.16;1983233;28;2735698;-70
2023/08/22 03:25:31;;;;;;;;;1.33;1.33;;;;;23.85;50.50;101817.81;1982803;28;2731528;-69
2023/08/22 03:26:45;;;;;;;;;1.50;1.00;;;;;23.83;50.71;101809.84;1983193;28;2722146;-69
2023/08/22 03:27:55;;;;;;;;;3.00;2.00;;;;;23.85;50.79;101814.28;1956934;28;3458618;-69
2023/08/22 03:29:06;;;;;;;;;1.00;1.00;;;;;23.85;50.87;101814.28;2005275;28;2714863;-69
2023/08/22 03:30:19;;;;;;;;;2.00;1.00;;;;;23.87;50.35;101806.97;1983269;28;2720055;-70
2023/08/22 03:31:32;;;;;;;;;1.33;1.00;;;;;23.88;50.84;101814.06;1981943;28;2726359;-70
2023/08/22 03:32:46;;;;;;;;;1.33;1.33;;;;;23.87;50.82;101806.97;1983056;28;2737755;-70
2023/08/22 03:33:59;;;;;;;;;1.17;1.17;;;;;23.86;50.79;101816.81;1982621;28;2739874;-69
2023/08/22 03:35:10;;;;;;;;;3.00;2.33;;;;;23.84;50.47;101808.03;1957245;28;2744008;-69
2023/08/22 03:36:21;;;;;;;;;1.00;1.00;;;;;23.83;51.07;101812.53;2004720;28;2737768;-70
2023/08/22 03:37:35;;;;;;;;;2.33;2.00;;;;;23.82;50.54;101810.84;2006280;28;2733603;-70
2023/08/22 03:38:51;;;;;;;;;1.00;1.00;;;;;23.82;50.43;101804.59;1983922;28;2723206;-70
2023/08/22 03:40:04;;;;;;;;;1.83;1.00;;;;;23.80;50.97;101812.78;1983619;28;2729441;-70
2023/08/22 03:41:15;;;;;;;;;2.33;1.33;;;;;23.80;50.75;101809.25;1957908;28;2733607;-70
2023/08/22 03:42:28;;;;;;;;;1.00;1.00;;;;;23.79;50.88;101811.06;2005336;28;2723194;-70
2023/08/22 03:43:38;;;;;;;;;2.00;2.00;;;;;23.80;50.54;101807.41;1958214;28;2748217;-70
2023/08/22 03:44:51;;;;;;;;;1.00;1.00;;;;;23.78;50.36;101809.34;2005621;28;2731552;-70
2023/08/22 03:46:04;;;;;;;;;1.33;1.33;;;;;23.78;50.18;101812.00;1982971;28;2729429;-70
2023/08/22 03:47:17;;;;;;;;;2.00;0.50;;;;;23.77;51.41;101815.69;1984095;28;2725262;-70
2023/08/22 03:48:30;;;;;;;;;1.33;1.33;;;;;23.77;50.98;101812.13;1982667;28;2741951;-70
2023/08/22 03:49:43;;;;;;;;;1.33;1.17;;;;;23.75;51.35;101814.94;1982475;28;2733603;-72
2023/08/22 03:50:54;;;;;;;;;2.00;2.00;;;;;23.73;50.97;101807.97;1956970;28;2746101;-72
2023/08/22 03:52:05;;;;;;;;;2.33;1.00;;;;;23.72;51.20;101807.09;2004052;28;2740867;-72
2023/08/22 03:53:18;;;;;;;;;3.00;2.00;;;;;23.70;51.68;101807.22;2005518;28;2733627;-71
2023/08/22 03:54:31;;;;;;;;;1.67;1.67;;;;;23.69;51.87;101799.28;1982208;28;2733619;-72
2023/08/22 03:55:43;;;;;;;;;2.33;2.33;;;;;23.67;51.73;101811.94;1959068;28;2740891;-72
2023/08/22 03:56:56;;;;;;;;;1.83;1.50;;;;;23.66;51.61;101820.94;2006701;28;2724229;-72
2023/08/22 03:58:10;;;;;;;;;3.33;1.67;;;;;23.65;50.72;101819.25;1983013;28;2726344;-72
2023/08/22 03:59:21;;;;;;;;;3.00;2.00;;;;;23.64;51.66;101814.84;1958905;28;2740883;-72
2023/08/22 04:00:32;;;;;;;;;5.00;3.00;;;;;23.63;51.52;101813.16;2003815;28;2738261;-72
2023/08/22 04:01:45;;;;;;;;;1.33;1.33;;;;;23.60;51.65;101812.41;2005151;28;2737758;-72
2023/08/22 04:02:59;;;;;;;;;2.00;1.33;;;;;23.60;51.39;101811.53;1983136;28;2735701;-73
2023/08/22 04:04:14;;;;;;;;;2.83;2.00;;;;;23.58;51.12;101808.13;1982564;28;2734089;-72
2023/08/22 04:05:28;;;;;;;;;2.00;2.00;;;;;23.56;51.97;101810.88;1983488;28;2742444;-72
2023/08/22 04:06:38;;;;;;;;;4.33;2.00;;;;;23.57;51.38;101817.13;1959328;28;2737786;-73
2023/08/22 04:07:50;;;;;;;;;2.00;2.00;;;;;23.55;51.52;101811.88;2011045;28;2739892;-73
2023/08/22 04:09:03;;;;;;;;;1.67;1.00;;;;;23.58;51.64;101818.84;2011700;28;2731516;-73
2023/08/22 04:10:16;;;;;;;;;1.00;1.00;;;;;23.58;51.60;101808.13;1982980;28;2722153;-71
2023/08/22 04:11:30;;;;;;;;;2.00;2.00;;;;;23.58;52.81;101813.47;1982862;28;2741952;-72
2023/08/22 04:12:43;;;;;;;;;2.50;1.00;;;;;23.58;52.21;101816.16;1980821;28;2730471;-72
2023/08/22 04:13:56;;;;;;;;;2.67;2.67;;;;;23.57;51.41;101820.66;1982951;28;2732013;-72
2023/08/22 04:15:08;;;;;;;;;2.67;2.67;;;;;23.57;51.64;101825.16;1956385;28;2744059;-71
2023/08/22 04:16:21;;;;;;;;;0.17;0.00;;;;;23.56;51.63;101816.25;2008659;28;2691989;-72
2023/08/22 04:17:35;;;;;;;;;3.83;2.00;;;;;23.54;52.40;101807.47;2011301;28;2754437;-71
2023/08/22 04:18:49;;;;;;;;;1.33;1.33;;;;;23.53;52.05;101812.97;1982754;28;2739860;-71
2023/08/22 04:20:03;;;;;;;;;2.17;2.00;;;;;23.51;52.17;101815.72;1980788;28;2748266;-71
2023/08/22 04:21:16;;;;;;;;;1.00;1.00;;;;;23.50;52.55;101811.34;1982825;28;2741924;-71
2023/08/22 04:22:32;;;;;;;;;2.50;2.50;;;;;23.49;52.51;101810.47;1981659;28;2746492;-71
2023/08/22 04:23:45;;;;;;;;;3.00;2.67;;;;;23.47;52.77;101814.22;1982529;28;2752396;-72
2023/08/22 04:24:58;;;;;;;;;1.00;1.00;;;;;23.46;51.81;101823.22;1983856;28;2720183;-72
2023/08/22 04:26:12;;;;;;;;;1.00;1.00;;;;;23.44;52.83;101817.09;1982496;28;2724244;-72
2023/08/22 04:27:25;;;;;;;;;1.00;1.00;;;;;23.43;52.63;101831.50;1982880;28;2725290;-71
2023/08/22 04:28:38;;;;;;;;;3.00;1.00;;;;;23.43;52.14;101826.13;1982737;28;2731511;-71
2023/08/22 04:29:51;;;;;;;;;3.00;1.50;;;;;23.41;51.85;101818.19;1982046;28;2729460;-71
2023/08/22 04:31:04;;;;;;;;;1.00;1.00;;;;;23.43;51.27;101810.03;1983050;28;2725262;-71
2023/08/22 04:32:15;;;;;;;;;2.00;2.00;;;;;23.44;51.97;101817.97;1955713;28;2747133;-71
2023/08/22 04:33:26;;;;;;;;;2.33;2.00;;;;;23.45;51.53;101819.69;1994043;28;2745341;-71
2023/08/22 04:34:37;;;;;;;;;2.50;2.00;;;;;23.46;51.87;101820.53;2003696;28;2739855;-69
2023/08/22 04:35:51;;;;;;;;;1.00;1.00;;;;;23.46;51.97;101815.16;2004719;28;2719039;-69
2023/08/22 04:37:04;;;;;;;;;3.00;1.00;;;;;23.46;52.40;101823.22;1982332;28;2729433;-69
2023/08/22 04:38:17;;;;;;;;;1.33;1.33;;;;;23.45;52.36;101829.56;1982213;28;2739834;-69
2023/08/22 04:39:30;;;;;;;;;1.67;1.00;;;;;23.44;51.65;101817.97;1981743;28;2720568;-69
2023/08/22 04:40:43;;;;;;;;;1.00;1.00;;;;;23.45;51.96;101819.69;1983132;28;2725251;-69
2023/08/22 04:41:54;;;;;;;;;2.00;2.00;;;;;23.45;52.08;101813.47;1955907;28;2749217;-69
2023/08/22 04:43:05;;;;;;;;;2.00;2.00;;;;;23.45;52.33;101813.47;2004607;28;2739838;-69
2023/08/22 04:44:18;;;;;;;;;1.83;1.83;;;;;23.43;52.27;101818.94;2004628;28;2737773;-69
2023/08/22 04:45:31;;;;;;;;;2.00;1.00;;;;;23.42;52.27;101817.22;1982935;28;2729458;-69
2023/08/22 04:46:44;;;;;;;;;2.33;2.00;;;;;23.40;52.00;101820.97;1982661;28;2737762;-69
2023/08/22 04:47:58;;;;;;;;;1.00;0.00;;;;;23.38;52.17;101818.41;1983690;28;2725295;-69
2023/08/22 04:49:11;;;;;;;;;2.67;2.67;;;;;23.38;52.48;101813.88;1981950;28;2739873;-69
2023/08/22 04:50:21;;;;;;;;;1.67;1.67;;;;;23.38;52.43;101821.94;1956493;28;2739842;-69
2023/08/22 04:51:32;;;;;;;;;1.67;1.00;;;;;23.37;52.40;101814.88;2004488;28;2721136;-69
2023/08/22 04:52:45;;;;;;;;;1.83;1.83;;;;;23.37;52.91;101817.56;2004393;28;2735683;-69
2023/08/22 04:53:58;;;;;;;;;2.50;2.33;;;;;23.37;52.80;101816.69;1981564;28;2740889;-69
2023/08/22 04:55:09;;;;;;;;;2.00;2.00;;;;;23.35;52.56;101816.81;1956542;28;2747169;-69
2023/08/22 04:56:21;;;;;;;;;2.00;1.00;;;;;23.34;53.07;101819.59;2004516;28;2727385;-69
2023/08/22 04:57:31;;;;;;;;;3.33;2.33;;;;;23.32;53.12;101822.38;1957499;28;2754517;-69
2023/08/22 04:58:42;;;;;;;;;3.00;3.00;;;;;23.31;53.13;101817.97;2002753;28;2749224;-69
2023/08/22 04:59:53;;;;;;;;;2.33;1.33;;;;;23.30;53.75;101826.13;1956347;28;2745054;-69
2023/08/22 05:01:07;;;;;;;;;1.33;1.33;;;;;23.30;53.75;101824.31;2005867;28;2720625;-69
2023/08/22 05:02:21;;;;;;;;;3.00;2.67;;;;;23.30;53.40;101829.69;1980276;28;2748250;-69
2023/08/22 05:03:35;;;;;;;;;2.00;2.00;;;;;23.28;53.15;101818.22;1984130;28;2733599;-69
2023/08/22 05:04:45;;;;;;;;;1.67;1.67;;;;;23.27;52.72;101819.16;1956932;28;2738801;-68
2023/08/22 05:05:56;;;;;;;;;2.00;2.00;;;;;23.25;52.54;101821.97;1994812;28;2748184;-69
2023/08/22 05:07:07;;;;;;;;;2.33;2.33;;;;;23.25;51.96;101819.28;2004525;28;2734701;-68
2023/08/22 05:08:20;;;;;;;;;2.17;2.17;;;;;23.29;52.24;101821.72;1982350;28;2753410;-68
2023/08/22 05:09:31;;;;;;;;;5.33;2.00;;;;;23.30;52.35;101821.63;1957676;28;2754444;-68
2023/08/22 05:10:43;;;;;;;;;4.00;2.67;;;;;23.31;52.85;101826.03;2002903;28;2752337;-68
2023/08/22 05:11:56;;;;;;;;;2.00;2.00;;;;;23.32;52.42;101827.75;2005597;28;2738800;-68
2023/08/22 05:13:09;;;;;;;;;4.33;3.00;;;;;23.32;52.06;101827.75;1982154;28;2746150;-67
2023/08/22 05:14:21;;;;;;;;;1.00;1.00;;;;;23.32;52.73;101829.56;1958654;28;2741967;-68
2023/08/22 05:15:34;;;;;;;;;3.00;1.17;;;;;23.32;52.73;101827.75;2005051;28;2723195;-68
2023/08/22 05:16:47;;;;;;;;;2.67;2.00;;;;;23.33;52.92;101826.78;1980367;28;2739885;-68
2023/08/22 05:17:57;;;;;;;;;3.00;2.33;;;;;23.34;52.80;101825.81;1956572;28;2750727;-68
2023/08/22 05:19:08;;;;;;;;;4.00;2.00;;;;;23.36;53.13;101820.34;1992050;28;2749291;-68
2023/08/22 05:20:20;;;;;;;;;3.00;2.25;;;;;23.35;53.50;101830.22;2002650;28;2744580;-68
2023/08/22 05:21:31;;;;;;;;;2.00;1.33;;;;;23.36;53.80;101829.25;1979339;28;2734664;-68
2023/08/22 05:22:42;;;;;;;;;2.00;2.00;;;;;23.36;54.25;101829.25;2000090;28;2736355;-68
2023/08/22 05:23:56;;;;;;;;;1.00;1.00;;;;;23.35;53.24;101827.53;1999529;28;2727338;-68
2023/08/22 05:25:09;;;;;;;;;3.00;3.00;;;;;23.34;53.05;101830.31;1977316;28;2729432;-68
2023/08/22 05:26:22;;;;;;;;;0.83;0.83;;;;;23.36;53.40;101836.44;1975534;28;2721137;-68
2023/08/22 05:27:33;;;;;;;;;2.33;2.00;;;;;23.36;53.42;101839.97;1954718;28;2749791;-68
2023/08/22 05:28:44;;;;;;;;;3.00;2.00;;;;;23.43;52.49;101839.53;1992649;28;2749350;-68
2023/08/22 05:29:55;;;;;;;;;4.00;2.67;;;;;23.45;52.33;101835.78;1971676;28;2754814;-68
2023/08/22 05:31:06;;;;;;;;;3.33;2.67;;;;;23.47;52.46;101835.66;1993175;28;2745045;-68
2023/08/22 05:32:16;;;;;;;;;4.67;3.00;;;;;23.47;52.18;101833.84;1991440;28;2754416;-68